CPX417 Details

Departure: Sacramento International Airport (KSMF)
Arrival: Chicago/Rockford International Airport (KRFD)
Route: SCTWN2 RALEY INSLO DTA DBL J60 IOW PLL


Current Weather Information
KSMF 250953Z 18014G22KT 10SM SCT008 12/11 A2978 RMK AO2 SLP084 T01220106
KRFD 250954Z 20005KT 10SM BKN200 21/16 A2986 RMK AO2 SLP107 T02060161